sensor_id;sensor_type;location;lat;lon;timestamp;P1;durP1;ratioP1;P2;durP2;ratioP2
11490;SDS011;5802;52.832;4.758;2023-08-01T00:01:50;1.90;;;1.50;;
11490;SDS011;5802;52.832;4.758;2023-08-01T00:04:17;3.00;;;1.45;;
11490;SDS011;5802;52.832;4.758;2023-08-01T00:06:43;1.90;;;1.52;;
11490;SDS011;5802;52.832;4.758;2023-08-01T00:09:10;2.25;;;1.30;;
11490;SDS011;5802;52.832;4.758;2023-08-01T00:11:37;2.83;;;1.60;;
11490;SDS011;5802;52.832;4.758;2023-08-01T00:14:03;2.53;;;1.55;;
11490;SDS011;5802;52.832;4.758;2023-08-01T00:16:30;2.25;;;1.70;;
11490;SDS011;5802;52.832;4.758;2023-08-01T00:18:58;2.67;;;1.52;;
11490;SDS011;5802;52.832;4.758;2023-08-01T00:21:25;2.60;;;1.67;;
11490;SDS011;5802;52.832;4.758;2023-08-01T00:23:52;2.53;;;1.50;;
11490;SDS011;5802;52.832;4.758;2023-08-01T00:26:18;2.72;;;1.70;;
11490;SDS011;5802;52.832;4.758;2023-08-01T00:28:45;2.25;;;1.50;;
11490;SDS011;5802;52.832;4.758;2023-08-01T00:31:12;2.65;;;1.60;;
11490;SDS011;5802;52.832;4.758;2023-08-01T00:33:38;3.08;;;1.55;;
11490;SDS011;5802;52.832;4.758;2023-08-01T00:36:06;2.10;;;1.38;;
11490;SDS011;5802;52.832;4.758;2023-08-01T00:38:34;2.58;;;1.60;;
11490;SDS011;5802;52.832;4.758;2023-08-01T00:41:01;2.10;;;1.67;;
11490;SDS011;5802;52.832;4.758;2023-08-01T00:43:28;2.78;;;1.75;;
11490;SDS011;5802;52.832;4.758;2023-08-01T00:45:55;2.10;;;1.50;;
11490;SDS011;5802;52.832;4.758;2023-08-01T00:48:25;2.30;;;1.50;;
11490;SDS011;5802;52.832;4.758;2023-08-01T00:50:52;2.55;;;1.65;;
11490;SDS011;5802;52.832;4.758;2023-08-01T00:53:20;2.50;;;1.63;;
11490;SDS011;5802;52.832;4.758;2023-08-01T00:55:47;3.60;;;1.85;;
11490;SDS011;5802;52.832;4.758;2023-08-01T00:58:14;1.75;;;1.40;;
11490;SDS011;5802;52.832;4.758;2023-08-01T01:00:41;2.75;;;1.60;;
11490;SDS011;5802;52.832;4.758;2023-08-01T01:03:07;2.95;;;1.40;;
11490;SDS011;5802;52.832;4.758;2023-08-01T01:05:35;2.60;;;1.60;;
11490;SDS011;5802;52.832;4.758;2023-08-01T01:08:04;3.05;;;1.60;;
11490;SDS011;5802;52.832;4.758;2023-08-01T01:10:33;2.85;;;1.45;;
11490;SDS011;5802;52.832;4.758;2023-08-01T01:13:00;3.03;;;1.40;;
11490;SDS011;5802;52.832;4.758;2023-08-01T01:15:26;3.28;;;1.80;;
11490;SDS011;5802;52.832;4.758;2023-08-01T01:17:53;3.42;;;1.77;;
11490;SDS011;5802;52.832;4.758;2023-08-01T01:20:22;2.17;;;1.48;;
11490;SDS011;5802;52.832;4.758;2023-08-01T01:22:51;3.10;;;1.45;;
11490;SDS011;5802;52.832;4.758;2023-08-01T01:25:19;2.22;;;1.40;;
11490;SDS011;5802;52.832;4.758;2023-08-01T01:27:46;1.50;;;1.40;;
11490;SDS011;5802;52.832;4.758;2023-08-01T01:30:14;2.00;;;1.40;;
11490;SDS011;5802;52.832;4.758;2023-08-01T01:32:41;2.10;;;1.40;;
11490;SDS011;5802;52.832;4.758;2023-08-01T01:35:08;2.65;;;1.42;;
11490;SDS011;5802;52.832;4.758;2023-08-01T01:37:35;3.65;;;1.40;;
11490;SDS011;5802;52.832;4.758;2023-08-01T01:40:04;2.55;;;1.73;;
11490;SDS011;5802;52.832;4.758;2023-08-01T01:42:34;2.78;;;1.83;;
11490;SDS011;5802;52.832;4.758;2023-08-01T01:45:02;3.22;;;1.60;;
11490;SDS011;5802;52.832;4.758;2023-08-01T01:47:30;2.20;;;1.40;;
11490;SDS011;5802;52.832;4.758;2023-08-01T01:49:56;2.22;;;1.20;;
11490;SDS011;5802;52.832;4.758;2023-08-01T01:52:23;3.55;;;1.40;;
11490;SDS011;5802;52.832;4.758;2023-08-01T01:54:50;2.35;;;1.50;;
11490;SDS011;5802;52.832;4.758;2023-08-01T01:57:18;2.03;;;1.38;;
11490;SDS011;5802;52.832;4.758;2023-08-01T01:59:44;2.50;;;1.38;;
11490;SDS011;5802;52.832;4.758;2023-08-01T02:02:11;1.13;;;1.02;;
11490;SDS011;5802;52.832;4.758;2023-08-01T02:04:38;1.50;;;1.20;;
11490;SDS011;5802;52.832;4.758;2023-08-01T02:07:05;2.80;;;1.30;;
11490;SDS011;5802;52.832;4.758;2023-08-01T02:09:32;1.60;;;1.20;;
11490;SDS011;5802;52.832;4.758;2023-08-01T02:11:58;1.92;;;1.40;;
11490;SDS011;5802;52.832;4.758;2023-08-01T02:14:26;1.40;;;1.20;;
11490;SDS011;5802;52.832;4.758;2023-08-01T02:16:53;2.30;;;1.40;;
11490;SDS011;5802;52.832;4.758;2023-08-01T02:19:20;2.10;;;1.20;;
11490;SDS011;5802;52.832;4.758;2023-08-01T02:21:46;2.00;;;1.35;;
11490;SDS011;5802;52.832;4.758;2023-08-01T02:24:13;2.22;;;1.42;;
11490;SDS011;5802;52.832;4.758;2023-08-01T02:26:40;2.00;;;1.20;;
11490;SDS011;5802;52.832;4.758;2023-08-01T02:29:06;1.90;;;1.35;;
11490;SDS011;5802;52.832;4.758;2023-08-01T02:31:34;1.75;;;1.25;;
11490;SDS011;5802;52.832;4.758;2023-08-01T02:34:01;2.35;;;1.70;;
11490;SDS011;5802;52.832;4.758;2023-08-01T02:36:28;1.48;;;1.27;;
11490;SDS011;5802;52.832;4.758;2023-08-01T02:38:54;1.70;;;1.30;;
11490;SDS011;5802;52.832;4.758;2023-08-01T02:41:21;2.17;;;1.15;;
11490;SDS011;5802;52.832;4.758;2023-08-01T02:43:48;1.70;;;1.38;;
11490;SDS011;5802;52.832;4.758;2023-08-01T02:46:14;2.45;;;1.35;;
11490;SDS011;5802;52.832;4.758;2023-08-01T02:48:42;1.60;;;1.30;;
11490;SDS011;5802;52.832;4.758;2023-08-01T02:51:09;1.85;;;1.30;;
11490;SDS011;5802;52.832;4.758;2023-08-01T02:53:36;2.75;;;1.30;;
11490;SDS011;5802;52.832;4.758;2023-08-01T02:56:05;1.52;;;1.10;;
11490;SDS011;5802;52.832;4.758;2023-08-01T02:58:33;1.73;;;1.20;;
11490;SDS011;5802;52.832;4.758;2023-08-01T03:01:00;1.33;;;0.98;;
11490;SDS011;5802;52.832;4.758;2023-08-01T03:03:27;1.90;;;1.27;;
11490;SDS011;5802;52.832;4.758;2023-08-01T03:05:55;1.48;;;1.30;;
11490;SDS011;5802;52.832;4.758;2023-08-01T03:08:21;2.28;;;1.10;;
11490;SDS011;5802;52.832;4.758;2023-08-01T03:10:48;1.92;;;1.33;;
11490;SDS011;5802;52.832;4.758;2023-08-01T03:13:15;1.52;;;1.20;;
11490;SDS011;5802;52.832;4.758;2023-08-01T03:15:41;2.13;;;1.30;;
11490;SDS011;5802;52.832;4.758;2023-08-01T03:18:08;1.38;;;1.15;;
11490;SDS011;5802;52.832;4.758;2023-08-01T03:20:35;1.90;;;1.27;;
11490;SDS011;5802;52.832;4.758;2023-08-01T03:23:03;2.08;;;1.25;;
11490;SDS011;5802;52.832;4.758;2023-08-01T03:25:30;1.90;;;1.10;;
11490;SDS011;5802;52.832;4.758;2023-08-01T03:27:56;1.65;;;1.20;;
11490;SDS011;5802;52.832;4.758;2023-08-01T03:30:23;1.42;;;0.95;;
11490;SDS011;5802;52.832;4.758;2023-08-01T03:32:50;1.63;;;1.17;;
11490;SDS011;5802;52.832;4.758;2023-08-01T03:35:17;2.05;;;1.20;;
11490;SDS011;5802;52.832;4.758;2023-08-01T03:37:44;1.88;;;1.20;;
11490;SDS011;5802;52.832;4.758;2023-08-01T03:40:12;2.15;;;1.10;;
11490;SDS011;5802;52.832;4.758;2023-08-01T03:42:38;3.70;;;1.20;;
11490;SDS011;5802;52.832;4.758;2023-08-01T03:45:07;2.67;;;1.20;;
11490;SDS011;5802;52.832;4.758;2023-08-01T03:47:35;2.13;;;1.17;;
11490;SDS011;5802;52.832;4.758;2023-08-01T03:50:01;1.42;;;1.15;;
11490;SDS011;5802;52.832;4.758;2023-08-01T03:52:29;1.83;;;1.10;;
11490;SDS011;5802;52.832;4.758;2023-08-01T03:54:55;2.13;;;1.30;;
11490;SDS011;5802;52.832;4.758;2023-08-01T03:57:23;2.22;;;1.10;;
11490;SDS011;5802;52.832;4.758;2023-08-01T03:59:50;1.13;;;0.82;;
11490;SDS011;5802;52.832;4.758;2023-08-01T04:02:17;1.55;;;1.20;;
11490;SDS011;5802;52.832;4.758;2023-08-01T04:04:44;2.78;;;1.30;;
11490;SDS011;5802;52.832;4.758;2023-08-01T04:07:10;1.45;;;1.20;;
11490;SDS011;5802;52.832;4.758;2023-08-01T04:09:37;2.33;;;1.15;;
11490;SDS011;5802;52.832;4.758;2023-08-01T04:12:04;1.70;;;1.10;;
11490;SDS011;5802;52.832;4.758;2023-08-01T04:14:33;1.23;;;1.02;;
11490;SDS011;5802;52.832;4.758;2023-08-01T04:17:00;2.00;;;1.30;;
11490;SDS011;5802;52.832;4.758;2023-08-01T04:19:26;2.13;;;1.20;;
11490;SDS011;5802;52.832;4.758;2023-08-01T04:21:53;1.90;;;1.05;;
11490;SDS011;5802;52.832;4.758;2023-08-01T04:24:20;1.77;;;1.17;;
11490;SDS011;5802;52.832;4.758;2023-08-01T04:26:50;1.30;;;0.90;;
11490;SDS011;5802;52.832;4.758;2023-08-01T04:29:16;1.95;;;1.13;;
11490;SDS011;5802;52.832;4.758;2023-08-01T04:31:44;1.10;;;0.88;;
11490;SDS011;5802;52.832;4.758;2023-08-01T04:34:11;1.92;;;1.15;;
11490;SDS011;5802;52.832;4.758;2023-08-01T04:36:38;1.30;;;1.02;;
11490;SDS011;5802;52.832;4.758;2023-08-01T04:39:04;1.80;;;1.08;;
11490;SDS011;5802;52.832;4.758;2023-08-01T04:41:31;2.08;;;1.23;;
11490;SDS011;5802;52.832;4.758;2023-08-01T04:43:57;1.23;;;1.00;;
11490;SDS011;5802;52.832;4.758;2023-08-01T04:46:24;1.42;;;0.98;;
11490;SDS011;5802;52.832;4.758;2023-08-01T04:48:52;2.88;;;1.30;;
11490;SDS011;5802;52.832;4.758;2023-08-01T04:51:19;1.40;;;1.00;;
11490;SDS011;5802;52.832;4.758;2023-08-01T04:53:45;1.33;;;0.88;;
11490;SDS011;5802;52.832;4.758;2023-08-01T04:56:12;2.28;;;1.13;;
11490;SDS011;5802;52.832;4.758;2023-08-01T04:58:39;2.10;;;1.15;;
11490;SDS011;5802;52.832;4.758;2023-08-01T05:01:05;1.30;;;0.90;;
11490;SDS011;5802;52.832;4.758;2023-08-01T05:03:32;2.25;;;1.10;;
11490;SDS011;5802;52.832;4.758;2023-08-01T05:06:00;1.65;;;1.10;;
11490;SDS011;5802;52.832;4.758;2023-08-01T05:08:27;2.78;;;1.10;;
11490;SDS011;5802;52.832;4.758;2023-08-01T05:10:53;1.80;;;1.00;;
11490;SDS011;5802;52.832;4.758;2023-08-01T05:13:20;2.00;;;1.13;;
11490;SDS011;5802;52.832;4.758;2023-08-01T05:15:47;1.58;;;1.17;;
11490;SDS011;5802;52.832;4.758;2023-08-01T05:18:13;1.73;;;1.00;;
11490;SDS011;5802;52.832;4.758;2023-08-01T05:20:41;2.45;;;1.20;;
11490;SDS011;5802;52.832;4.758;2023-08-01T05:23:09;1.98;;;0.95;;
11490;SDS011;5802;52.832;4.758;2023-08-01T05:25:36;2.00;;;1.13;;
11490;SDS011;5802;52.832;4.758;2023-08-01T05:28:03;2.70;;;1.00;;
11490;SDS011;5802;52.832;4.758;2023-08-01T05:30:29;2.10;;;1.00;;
11490;SDS011;5802;52.832;4.758;2023-08-01T05:32:56;1.13;;;0.95;;
11490;SDS011;5802;52.832;4.758;2023-08-01T05:35:23;1.70;;;0.90;;
11490;SDS011;5802;52.832;4.758;2023-08-01T05:37:49;1.27;;;0.80;;
11490;SDS011;5802;52.832;4.758;2023-08-01T05:40:17;1.40;;;1.10;;
11490;SDS011;5802;52.832;4.758;2023-08-01T05:42:44;1.70;;;1.02;;
11490;SDS011;5802;52.832;4.758;2023-08-01T05:45:11;1.63;;;1.13;;
11490;SDS011;5802;52.832;4.758;2023-08-01T05:47:37;2.05;;;0.93;;
11490;SDS011;5802;52.832;4.758;2023-08-01T05:50:05;2.10;;;1.10;;
11490;SDS011;5802;52.832;4.758;2023-08-01T05:52:32;2.05;;;0.98;;
11490;SDS011;5802;52.832;4.758;2023-08-01T05:54:59;2.03;;;1.00;;
11490;SDS011;5802;52.832;4.758;2023-08-01T05:57:27;1.23;;;0.93;;
11490;SDS011;5802;52.832;4.758;2023-08-01T05:59:54;1.80;;;1.00;;
11490;SDS011;5802;52.832;4.758;2023-08-01T06:02:21;1.27;;;0.90;;
11490;SDS011;5802;52.832;4.758;2023-08-01T06:04:48;1.52;;;0.90;;
11490;SDS011;5802;52.832;4.758;2023-08-01T06:07:14;1.42;;;1.02;;
11490;SDS011;5802;52.832;4.758;2023-08-01T06:09:41;2.38;;;0.98;;
11490;SDS011;5802;52.832;4.758;2023-08-01T06:12:08;1.20;;;0.90;;
11490;SDS011;5802;52.832;4.758;2023-08-01T06:14:36;2.58;;;1.08;;
11490;SDS011;5802;52.832;4.758;2023-08-01T06:17:03;2.75;;;0.93;;
11490;SDS011;5802;52.832;4.758;2023-08-01T06:19:30;1.88;;;1.10;;
11490;SDS011;5802;52.832;4.758;2023-08-01T06:21:58;1.60;;;1.20;;
11490;SDS011;5802;52.832;4.758;2023-08-01T06:24:25;1.92;;;1.08;;
11490;SDS011;5802;52.832;4.758;2023-08-01T06:26:52;1.65;;;1.00;;
11490;SDS011;5802;52.832;4.758;2023-08-01T06:29:18;2.80;;;1.15;;
11490;SDS011;5802;52.832;4.758;2023-08-01T06:31:46;2.08;;;1.00;;
11490;SDS011;5802;52.832;4.758;2023-08-01T06:34:13;2.90;;;1.20;;
11490;SDS011;5802;52.832;4.758;2023-08-01T06:36:39;1.50;;;0.93;;
11490;SDS011;5802;52.832;4.758;2023-08-01T06:39:06;2.45;;;1.05;;
11490;SDS011;5802;52.832;4.758;2023-08-01T06:41:33;1.35;;;1.08;;
11490;SDS011;5802;52.832;4.758;2023-08-01T06:44:01;1.65;;;1.05;;
11490;SDS011;5802;52.832;4.758;2023-08-01T06:46:27;2.00;;;1.10;;
11490;SDS011;5802;52.832;4.758;2023-08-01T06:48:55;2.90;;;1.20;;
11490;SDS011;5802;52.832;4.758;2023-08-01T06:51:22;2.10;;;1.20;;
11490;SDS011;5802;52.832;4.758;2023-08-01T06:53:49;2.28;;;1.10;;
11490;SDS011;5802;52.832;4.758;2023-08-01T06:56:16;2.70;;;1.20;;
11490;SDS011;5802;52.832;4.758;2023-08-01T06:58:43;2.00;;;1.20;;
11490;SDS011;5802;52.832;4.758;2023-08-01T07:01:09;1.60;;;1.05;;
11490;SDS011;5802;52.832;4.758;2023-08-01T07:03:36;1.33;;;1.00;;
11490;SDS011;5802;52.832;4.758;2023-08-01T07:06:04;2.72;;;1.33;;
11490;SDS011;5802;52.832;4.758;2023-08-01T07:08:31;2.15;;;1.20;;
11490;SDS011;5802;52.832;4.758;2023-08-01T07:10:58;1.83;;;1.00;;
11490;SDS011;5802;52.832;4.758;2023-08-01T07:13:24;1.98;;;1.15;;
11490;SDS011;5802;52.832;4.758;2023-08-01T07:15:51;2.05;;;1.20;;
11490;SDS011;5802;52.832;4.758;2023-08-01T07:18:18;1.75;;;1.15;;
11490;SDS011;5802;52.832;4.758;2023-08-01T07:20:45;1.80;;;1.20;;
11490;SDS011;5802;52.832;4.758;2023-08-01T07:23:13;2.85;;;1.27;;
11490;SDS011;5802;52.832;4.758;2023-08-01T07:25:39;4.57;;;1.33;;
11490;SDS011;5802;52.832;4.758;2023-08-01T07:28:06;2.58;;;1.10;;
11490;SDS011;5802;52.832;4.758;2023-08-01T07:30:32;2.65;;;1.20;;
11490;SDS011;5802;52.832;4.758;2023-08-01T07:32:58;2.65;;;1.30;;
11490;SDS011;5802;52.832;4.758;2023-08-01T07:35:25;2.80;;;1.30;;
11490;SDS011;5802;52.832;4.758;2023-08-01T07:37:52;3.50;;;1.40;;
11490;SDS011;5802;52.832;4.758;2023-08-01T07:40:20;3.22;;;1.30;;
11490;SDS011;5802;52.832;4.758;2023-08-01T07:42:46;1.35;;;1.00;;
11490;SDS011;5802;52.832;4.758;2023-08-01T07:45:13;2.50;;;1.38;;
11490;SDS011;5802;52.832;4.758;2023-08-01T07:47:40;2.33;;;1.35;;
11490;SDS011;5802;52.832;4.758;2023-08-01T07:50:07;2.72;;;1.15;;
11490;SDS011;5802;52.832;4.758;2023-08-01T07:52:34;2.90;;;1.35;;
11490;SDS011;5802;52.832;4.758;2023-08-01T07:55:00;2.28;;;1.35;;
11490;SDS011;5802;52.832;4.758;2023-08-01T07:57:28;1.95;;;1.30;;
11490;SDS011;5802;52.832;4.758;2023-08-01T07:59:55;2.17;;;1.20;;
11490;SDS011;5802;52.832;4.758;2023-08-01T08:02:22;1.45;;;0.90;;
11490;SDS011;5802;52.832;4.758;2023-08-01T08:04:49;2.65;;;1.40;;
11490;SDS011;5802;52.832;4.758;2023-08-01T08:07:15;1.65;;;1.05;;
11490;SDS011;5802;52.832;4.758;2023-08-01T08:09:42;1.58;;;1.17;;
11490;SDS011;5802;52.832;4.758;2023-08-01T08:12:09;3.40;;;1.25;;
11490;SDS011;5802;52.832;4.758;2023-08-01T08:14:37;2.10;;;1.25;;
11490;SDS011;5802;52.832;4.758;2023-08-01T08:17:03;2.10;;;1.25;;
11490;SDS011;5802;52.832;4.758;2023-08-01T08:19:30;2.45;;;1.20;;
11490;SDS011;5802;52.832;4.758;2023-08-01T08:21:57;2.50;;;1.50;;
11490;SDS011;5802;52.832;4.758;2023-08-01T08:24:24;1.88;;;1.15;;
11490;SDS011;5802;52.832;4.758;2023-08-01T08:26:50;2.00;;;1.15;;
11490;SDS011;5802;52.832;4.758;2023-08-01T08:29:17;3.10;;;1.30;;
11490;SDS011;5802;52.832;4.758;2023-08-01T08:31:47;3.17;;;1.38;;
11490;SDS011;5802;52.832;4.758;2023-08-01T08:34:14;2.03;;;1.10;;
11490;SDS011;5802;52.832;4.758;2023-08-01T08:36:40;1.60;;;1.20;;
11490;SDS011;5802;52.832;4.758;2023-08-01T08:39:07;2.22;;;1.08;;
11490;SDS011;5802;52.832;4.758;2023-08-01T08:41:35;1.90;;;1.20;;
11490;SDS011;5802;52.832;4.758;2023-08-01T08:44:05;2.40;;;1.27;;
11490;SDS011;5802;52.832;4.758;2023-08-01T08:46:35;2.20;;;1.02;;
11490;SDS011;5802;52.832;4.758;2023-08-01T08:49:09;2.88;;;1.38;;
11490;SDS011;5802;52.832;4.758;2023-08-01T08:51:36;2.05;;;1.15;;
11490;SDS011;5802;52.832;4.758;2023-08-01T08:54:04;1.73;;;1.08;;
11490;SDS011;5802;52.832;4.758;2023-08-01T08:56:31;1.70;;;1.17;;
11490;SDS011;5802;52.832;4.758;2023-08-01T08:58:59;1.73;;;1.10;;
11490;SDS011;5802;52.832;4.758;2023-08-01T09:01:27;2.40;;;1.30;;
11490;SDS011;5802;52.832;4.758;2023-08-01T09:03:56;3.05;;;1.38;;
11490;SDS011;5802;52.832;4.758;2023-08-01T09:06:25;4.32;;;1.45;;
11490;SDS011;5802;52.832;4.758;2023-08-01T09:08:58;6.20;;;1.60;;
11490;SDS011;5802;52.832;4.758;2023-08-01T09:11:29;3.83;;;1.52;;
11490;SDS011;5802;52.832;4.758;2023-08-01T09:14:04;3.72;;;1.63;;
11490;SDS011;5802;52.832;4.758;2023-08-01T09:16:32;6.00;;;1.98;;
11490;SDS011;5802;52.832;4.758;2023-08-01T09:18:59;5.97;;;2.10;;
11490;SDS011;5802;52.832;4.758;2023-08-01T09:21:27;5.07;;;2.03;;
11490;SDS011;5802;52.832;4.758;2023-08-01T09:23:58;5.63;;;2.10;;
11490;SDS011;5802;52.832;4.758;2023-08-01T09:26:33;6.43;;;1.90;;
11490;SDS011;5802;52.832;4.758;2023-08-01T09:29:00;5.78;;;1.88;;
11490;SDS011;5802;52.832;4.758;2023-08-01T09:31:26;10.07;;;1.92;;
11490;SDS011;5802;52.832;4.758;2023-08-01T09:33:54;5.25;;;2.00;;
11490;SDS011;5802;52.832;4.758;2023-08-01T09:36:21;5.80;;;1.88;;
11490;SDS011;5802;52.832;4.758;2023-08-01T09:38:49;4.97;;;2.00;;
11490;SDS011;5802;52.832;4.758;2023-08-01T09:41:16;7.32;;;2.17;;
11490;SDS011;5802;52.832;4.758;2023-08-01T09:43:44;5.28;;;2.20;;
11490;SDS011;5802;52.832;4.758;2023-08-01T09:46:11;5.78;;;2.00;;
11490;SDS011;5802;52.832;4.758;2023-08-01T09:48:38;6.03;;;2.30;;
11490;SDS011;5802;52.832;4.758;2023-08-01T09:51:06;7.70;;;2.15;;
11490;SDS011;5802;52.832;4.758;2023-08-01T09:53:34;6.05;;;1.95;;
11490;SDS011;5802;52.832;4.758;2023-08-01T09:56:02;6.30;;;2.30;;
11490;SDS011;5802;52.832;4.758;2023-08-01T09:58:31;8.35;;;2.65;;
11490;SDS011;5802;52.832;4.758;2023-08-01T10:00:59;5.70;;;2.50;;
11490;SDS011;5802;52.832;4.758;2023-08-01T10:03:27;7.22;;;2.67;;
11490;SDS011;5802;52.832;4.758;2023-08-01T10:05:54;6.80;;;2.58;;
11490;SDS011;5802;52.832;4.758;2023-08-01T10:08:22;7.57;;;2.47;;
11490;SDS011;5802;52.832;4.758;2023-08-01T10:10:49;7.85;;;2.10;;
11490;SDS011;5802;52.832;4.758;2023-08-01T10:13:17;8.52;;;2.53;;
11490;SDS011;5802;52.832;4.758;2023-08-01T10:15:49;8.70;;;3.03;;
11490;SDS011;5802;52.832;4.758;2023-08-01T10:18:16;6.97;;;2.35;;
11490;SDS011;5802;52.832;4.758;2023-08-01T10:20:43;9.55;;;2.30;;
11490;SDS011;5802;52.832;4.758;2023-08-01T10:23:11;5.20;;;1.95;;
11490;SDS011;5802;52.832;4.758;2023-08-01T10:25:38;7.05;;;2.15;;
11490;SDS011;5802;52.832;4.758;2023-08-01T10:28:06;5.47;;;2.05;;
11490;SDS011;5802;52.832;4.758;2023-08-01T10:30:34;5.68;;;2.10;;
11490;SDS011;5802;52.832;4.758;2023-08-01T10:33:01;5.80;;;2.20;;
11490;SDS011;5802;52.832;4.758;2023-08-01T10:35:33;4.20;;;1.90;;
11490;SDS011;5802;52.832;4.758;2023-08-01T10:38:04;5.63;;;2.10;;
11490;SDS011;5802;52.832;4.758;2023-08-01T10:40:35;5.05;;;1.90;;
11490;SDS011;5802;52.832;4.758;2023-08-01T10:43:02;5.55;;;2.00;;
11490;SDS011;5802;52.832;4.758;2023-08-01T10:45:29;8.68;;;2.13;;
11490;SDS011;5802;52.832;4.758;2023-08-01T10:48:07;6.65;;;2.22;;
11490;SDS011;5802;52.832;4.758;2023-08-01T10:50:34;6.65;;;2.05;;
11490;SDS011;5802;52.832;4.758;2023-08-01T10:53:04;7.22;;;2.20;;
11490;SDS011;5802;52.832;4.758;2023-08-01T10:55:39;3.55;;;2.03;;
11490;SDS011;5802;52.832;4.758;2023-08-01T10:58:10;6.10;;;1.83;;
11490;SDS011;5802;52.832;4.758;2023-08-01T11:00:37;3.38;;;1.90;;
11490;SDS011;5802;52.832;4.758;2023-08-01T11:03:04;5.10;;;2.30;;
11490;SDS011;5802;52.832;4.758;2023-08-01T11:05:32;6.35;;;1.90;;
11490;SDS011;5802;52.832;4.758;2023-08-01T11:07:59;3.92;;;1.65;;
11490;SDS011;5802;52.832;4.758;2023-08-01T11:10:27;7.05;;;2.15;;
11490;SDS011;5802;52.832;4.758;2023-08-01T11:12:54;5.03;;;2.35;;
11490;SDS011;5802;52.832;4.758;2023-08-01T11:15:21;6.45;;;2.40;;
11490;SDS011;5802;52.832;4.758;2023-08-01T11:17:49;3.47;;;1.95;;
11490;SDS011;5802;52.832;4.758;2023-08-01T11:20:18;6.93;;;2.03;;
11490;SDS011;5802;52.832;4.758;2023-08-01T11:22:52;3.10;;;1.60;;
11490;SDS011;5802;52.832;4.758;2023-08-01T11:25:30;3.15;;;1.63;;
11490;SDS011;5802;52.832;4.758;2023-08-01T11:28:01;6.15;;;1.63;;
11490;SDS011;5802;52.832;4.758;2023-08-01T11:30:32;6.05;;;2.05;;
11490;SDS011;5802;52.832;4.758;2023-08-01T11:32:59;6.15;;;2.00;;
11490;SDS011;5802;52.832;4.758;2023-08-01T11:35:25;5.30;;;1.50;;
11490;SDS011;5802;52.832;4.758;2023-08-01T11:37:53;4.15;;;1.75;;
11490;SDS011;5802;52.832;4.758;2023-08-01T11:40:19;4.55;;;2.13;;
11490;SDS011;5802;52.832;4.758;2023-08-01T11:42:48;9.00;;;2.10;;
11490;SDS011;5802;52.832;4.758;2023-08-01T11:45:16;3.15;;;1.80;;
11490;SDS011;5802;52.832;4.758;2023-08-01T11:47:46;5.28;;;1.85;;
11490;SDS011;5802;52.832;4.758;2023-08-01T11:50:13;6.70;;;2.10;;
11490;SDS011;5802;52.832;4.758;2023-08-01T11:52:46;6.43;;;1.98;;
11490;SDS011;5802;52.832;4.758;2023-08-01T11:55:19;8.13;;;2.05;;
11490;SDS011;5802;52.832;4.758;2023-08-01T11:57:54;6.70;;;1.85;;
11490;SDS011;5802;52.832;4.758;2023-08-01T12:00:22;6.28;;;1.83;;
11490;SDS011;5802;52.832;4.758;2023-08-01T12:02:50;5.65;;;1.88;;
11490;SDS011;5802;52.832;4.758;2023-08-01T12:05:23;6.63;;;1.98;;
11490;SDS011;5802;52.832;4.758;2023-08-01T12:07:50;5.22;;;2.10;;
11490;SDS011;5802;52.832;4.758;2023-08-01T12:10:17;4.85;;;1.88;;
11490;SDS011;5802;52.832;4.758;2023-08-01T12:12:46;3.70;;;1.63;;
11490;SDS011;5802;52.832;4.758;2023-08-01T12:15:17;5.78;;;1.85;;
11490;SDS011;5802;52.832;4.758;2023-08-01T12:17:44;7.22;;;1.55;;
11490;SDS011;5802;52.832;4.758;2023-08-01T12:20:11;4.53;;;2.05;;
11490;SDS011;5802;52.832;4.758;2023-08-01T12:22:38;4.28;;;1.67;;
11490;SDS011;5802;52.832;4.758;2023-08-01T12:25:05;4.25;;;1.80;;
11490;SDS011;5802;52.832;4.758;2023-08-01T12:27:32;3.33;;;1.70;;
11490;SDS011;5802;52.832;4.758;2023-08-01T12:30:00;4.15;;;1.50;;
11490;SDS011;5802;52.832;4.758;2023-08-01T12:32:27;3.78;;;1.65;;
11490;SDS011;5802;52.832;4.758;2023-08-01T12:34:54;4.40;;;1.58;;
11490;SDS011;5802;52.832;4.758;2023-08-01T12:37:20;2.20;;;1.50;;
11490;SDS011;5802;52.832;4.758;2023-08-01T12:39:47;3.05;;;1.50;;
11490;SDS011;5802;52.832;4.758;2023-08-01T12:42:14;2.72;;;1.40;;
11490;SDS011;5802;52.832;4.758;2023-08-01T12:44:40;4.15;;;1.27;;
11490;SDS011;5802;52.832;4.758;2023-08-01T12:47:08;5.35;;;1.67;;
11490;SDS011;5802;52.832;4.758;2023-08-01T12:49:36;3.20;;;1.35;;
11490;SDS011;5802;52.832;4.758;2023-08-01T12:52:03;3.97;;;1.63;;
11490;SDS011;5802;52.832;4.758;2023-08-01T12:54:30;3.80;;;1.60;;
11490;SDS011;5802;52.832;4.758;2023-08-01T12:56:57;4.72;;;1.42;;
11490;SDS011;5802;52.832;4.758;2023-08-01T12:59:23;2.45;;;1.30;;
11490;SDS011;5802;52.832;4.758;2023-08-01T13:01:50;3.25;;;1.50;;
11490;SDS011;5802;52.832;4.758;2023-08-01T13:04:18;2.88;;;1.38;;
11490;SDS011;5802;52.832;4.758;2023-08-01T13:06:45;2.03;;;1.13;;
11490;SDS011;5802;52.832;4.758;2023-08-01T13:09:12;5.38;;;1.40;;
11490;SDS011;5802;52.832;4.758;2023-08-01T13:11:38;2.15;;;1.38;;
11490;SDS011;5802;52.832;4.758;2023-08-01T13:14:08;4.63;;;1.75;;
11490;SDS011;5802;52.832;4.758;2023-08-01T13:16:35;2.47;;;1.20;;
11490;SDS011;5802;52.832;4.758;2023-08-01T13:19:01;2.08;;;1.05;;
11490;SDS011;5802;52.832;4.758;2023-08-01T13:21:29;3.42;;;1.45;;
11490;SDS011;5802;52.832;4.758;2023-08-01T13:23:56;1.70;;;1.00;;
11490;SDS011;5802;52.832;4.758;2023-08-01T13:26:22;2.38;;;1.02;;
11490;SDS011;5802;52.832;4.758;2023-08-01T13:28:49;2.33;;;1.13;;
11490;SDS011;5802;52.832;4.758;2023-08-01T13:31:16;1.95;;;1.42;;
11490;SDS011;5802;52.832;4.758;2023-08-01T13:33:42;2.85;;;1.50;;
11490;SDS011;5802;52.832;4.758;2023-08-01T13:36:09;2.67;;;1.25;;
11490;SDS011;5802;52.832;4.758;2023-08-01T13:38:37;4.88;;;1.63;;
11490;SDS011;5802;52.832;4.758;2023-08-01T13:41:04;2.47;;;1.20;;
11490;SDS011;5802;52.832;4.758;2023-08-01T13:43:30;1.48;;;1.00;;
11490;SDS011;5802;52.832;4.758;2023-08-01T13:45:57;2.67;;;1.25;;
11490;SDS011;5802;52.832;4.758;2023-08-01T13:48:24;3.88;;;1.27;;
11490;SDS011;5802;52.832;4.758;2023-08-01T13:50:51;2.13;;;1.27;;
11490;SDS011;5802;52.832;4.758;2023-08-01T13:53:18;2.08;;;1.20;;
11490;SDS011;5802;52.832;4.758;2023-08-01T13:55:46;2.20;;;1.20;;
11490;SDS011;5802;52.832;4.758;2023-08-01T13:58:12;2.28;;;1.33;;
11490;SDS011;5802;52.832;4.758;2023-08-01T14:00:39;3.20;;;1.23;;
11490;SDS011;5802;52.832;4.758;2023-08-01T14:03:06;2.42;;;1.27;;
11490;SDS011;5802;52.832;4.758;2023-08-01T14:05:32;3.03;;;1.40;;
11490;SDS011;5802;52.832;4.758;2023-08-01T14:07:59;3.35;;;1.40;;
11490;SDS011;5802;52.832;4.758;2023-08-01T14:10:26;2.78;;;1.40;;
11490;SDS011;5802;52.832;4.758;2023-08-01T14:12:55;2.17;;;1.20;;
11490;SDS011;5802;52.832;4.758;2023-08-01T14:15:21;1.83;;;1.08;;
11490;SDS011;5802;52.832;4.758;2023-08-01T14:17:48;2.00;;;1.17;;
11490;SDS011;5802;52.832;4.758;2023-08-01T14:20:15;2.55;;;1.08;;
11490;SDS011;5802;52.832;4.758;2023-08-01T14:22:41;2.45;;;1.10;;
11490;SDS011;5802;52.832;4.758;2023-08-01T14:25:08;3.22;;;1.60;;
11490;SDS011;5802;52.832;4.758;2023-08-01T14:27:35;3.22;;;1.35;;
11490;SDS011;5802;52.832;4.758;2023-08-01T14:30:03;3.13;;;1.40;;
11490;SDS011;5802;52.832;4.758;2023-08-01T14:32:31;2.00;;;1.10;;
11490;SDS011;5802;52.832;4.758;2023-08-01T14:34:58;2.95;;;1.33;;
11490;SDS011;5802;52.832;4.758;2023-08-01T14:37:25;2.92;;;1.40;;
11490;SDS011;5802;52.832;4.758;2023-08-01T14:39:52;2.90;;;1.00;;
11490;SDS011;5802;52.832;4.758;2023-08-01T14:42:19;2.13;;;1.20;;
11490;SDS011;5802;52.832;4.758;2023-08-01T14:44:50;1.73;;;1.00;;
11490;SDS011;5802;52.832;4.758;2023-08-01T14:47:19;4.20;;;1.50;;
11490;SDS011;5802;52.832;4.758;2023-08-01T14:49:45;2.40;;;1.30;;
11490;SDS011;5802;52.832;4.758;2023-08-01T14:52:12;3.08;;;1.05;;
11490;SDS011;5802;52.832;4.758;2023-08-01T14:54:39;1.95;;;1.35;;
11490;SDS011;5802;52.832;4.758;2023-08-01T14:57:06;2.72;;;1.35;;
11490;SDS011;5802;52.832;4.758;2023-08-01T14:59:33;1.77;;;1.30;;
11490;SDS011;5802;52.832;4.758;2023-08-01T15:01:59;2.75;;;1.30;;